»·PEaware :: SWA210 KBUR-KSLC

SWA210 :: KBUR-KSLC

FLIGHT INFORMATION

Flight Status: Arrived
Operator:
Southwest Airlines
More flights by this operator :: More flights under this callsign
Pilot: Anonymous 16446 (16446)
Aircraft: BOEING 737-200
(B732)
More flights by this aircraft type
Origin: KBUR Bob Hope-Burbank
United States
Destination: KSLC Salt Lake City Intl
United States
More flights between these airports :: More routes between these airports
Route: VNY3 DAG J9 MLF JAMMN5
File this flight plan on PilotEdge
Remarks:
Altitude:
(Current/Filed)
33,000ft
Speed:
(Current/Filed)
450kts
Departed: 22-Jan-18 10:01 PM
Arrived: 22-Jan-18 11:33 PM
Distance/Time
Traveled:
498nm/1:32
Distance/Time
To Go:
Arrived

Flight Plot

Page will automatically refresh every two minutes.

Flight plan parsing failed; only flown route is shown


Map Options




Map Legend


Flown Route
Filed Route
Departure Airport
Arrival Airport
Navaid (VOR, NDB)
Fix

Horizontal Profiles

Position Reports

Time Latitude Longitude Heading Altitude Ground
Speed
22-Jan-18 21:48 34.196739 -118.351076 179 785ft 0kts
22-Jan-18 21:49 34.196739 -118.351076 179 785ft 0kts
22-Jan-18 21:50 34.196739 -118.351076 179 785ft 0kts
22-Jan-18 21:51 34.196739 -118.351076 179 785ft 0kts
22-Jan-18 21:52 34.196739 -118.351076 179 785ft 0kts
22-Jan-18 21:53 34.196739 -118.351076 179 785ft 0kts
22-Jan-18 21:54 34.196739 -118.351076 179 785ft 0kts
22-Jan-18 21:55 34.196739 -118.351076 179 785ft 0kts
22-Jan-18 21:56 34.197011 -118.350995 214 785ft 2kts
22-Jan-18 21:57 34.197174 -118.350604 271 785ft 0kts
22-Jan-18 21:58 34.197174 -118.350604 271 785ft 0kts
22-Jan-18 21:59 34.197174 -118.350604 271 785ft 0kts
22-Jan-18 22:00 34.197184 -118.352689 268 785ft 19kts
22-Jan-18 22:01 34.197169 -118.353193 267 785ft 0kts
22-Jan-18 22:02 34.197164 -118.353370 268 785ft 7kts
22-Jan-18 22:03 34.200646 -118.355885 348 785ft 33kts
22-Jan-18 22:04 34.207746 -118.357861 346 785ft 39kts
22-Jan-18 22:05 34.211390 -118.358868 332 785ft 0kts
22-Jan-18 22:06 34.211886 -118.359523 300 785ft 17kts
22-Jan-18 22:07 34.193781 -118.355353 173 1027ft 164kts
22-Jan-18 22:08 34.152804 -118.392599 241 3489ft 234kts
22-Jan-18 22:09 34.153454 -118.435988 296 5457ft 247kts
22-Jan-18 22:10 34.163810 -118.466553 292 6641ft 266kts
22-Jan-18 22:11 34.174403 -118.501498 292 8076ft 275kts
22-Jan-18 22:12 34.185366 -118.536941 299 9483ft 281kts
22-Jan-18 22:13 34.223091 -118.570414 336 10565ft 315kts
22-Jan-18 22:14 34.253106 -118.586070 337 11733ft 320kts
22-Jan-18 22:15 34.284790 -118.602200 337 12934ft 323kts
22-Jan-18 22:16 34.322148 -118.614230 2 14154ft 329kts
22-Jan-18 22:17 34.362103 -118.575360 72 15590ft 351kts
22-Jan-18 22:18 34.366546 -118.499576 65 16993ft 359kts
22-Jan-18 22:19 34.399929 -118.433105 49 18403ft 360kts
22-Jan-18 22:20 34.441752 -118.367056 49 19770ft 368kts
22-Jan-18 22:21 34.497860 -118.277716 49 20592ft 398kts
22-Jan-18 22:22 34.562352 -118.174310 49 22132ft 406kts
22-Jan-18 22:23 34.618247 -118.078383 64 23239ft 422kts
22-Jan-18 22:24 34.641323 -117.940308 75 24386ft 435kts
22-Jan-18 22:25 34.661495 -117.800009 71 25374ft 442kts
22-Jan-18 22:26 34.687150 -117.666905 71 26227ft 448kts
22-Jan-18 22:27 34.721663 -117.523897 68 27042ft 454kts
22-Jan-18 22:28 34.759199 -117.377854 68 27774ft 460kts
22-Jan-18 22:29 34.796188 -117.231498 68 28382ft 466kts
22-Jan-18 22:30 34.834263 -117.082620 68 28069ft 490kts
22-Jan-18 22:31 34.871946 -116.934678 68 30091ft 457kts
22-Jan-18 22:32 34.909924 -116.785133 68 30112ft 474kts
22-Jan-18 22:33 34.948800 -116.630781 68 30313ft 482kts
22-Jan-18 22:34 35.022239 -116.503189 37 30622ft 466kts
22-Jan-18 22:35 35.106049 -116.388410 41 30925ft 471kts
22-Jan-18 22:36 35.186574 -116.285508 41 31212ft 474kts
22-Jan-18 22:37 35.278245 -116.170829 40 31848ft 478kts
22-Jan-18 22:38 35.370694 -116.055728 40 32655ft 470kts
22-Jan-18 22:39 35.462384 -115.941374 40 33295ft 471kts
22-Jan-18 22:40 35.553864 -115.826830 40 33321ft 477kts
22-Jan-18 22:41 35.645963 -115.711013 40 33320ft 476kts
22-Jan-18 22:42 35.737468 -115.595609 40 33320ft 475kts
22-Jan-18 22:43 35.828537 -115.480311 40 33321ft 474kts
22-Jan-18 22:44 35.919460 -115.364864 40 33314ft 474kts
22-Jan-18 22:45 35.993796 -115.268492 40 33307ft 473kts
22-Jan-18 22:46 36.081957 -115.155323 40 33305ft 472kts
22-Jan-18 22:47 36.170439 -115.043204 40 33309ft 471kts
22-Jan-18 22:48 36.260039 -114.928382 40 33312ft 472kts
22-Jan-18 22:49 36.350076 -114.812104 40 33313ft 473kts
22-Jan-18 22:50 36.440320 -114.695025 40 33313ft 473kts
22-Jan-18 22:51 36.530289 -114.577985 40 33313ft 474kts
22-Jan-18 22:52 36.620505 -114.460367 40 33314ft 474kts
22-Jan-18 22:53 36.709871 -114.342785 41 33329ft 475kts
22-Jan-18 22:54 36.797853 -114.225447 41 33342ft 473kts
22-Jan-18 22:55 36.887395 -114.107135 41 33343ft 473kts
22-Jan-18 22:56 36.981644 -113.999778 20 33372ft 455kts
22-Jan-18 22:57 37.093105 -113.926015 23 33344ft 457kts
22-Jan-18 22:58 37.203222 -113.853048 12 33335ft 448kts
22-Jan-18 22:59 37.320281 -113.804470 14 33350ft 449kts
22-Jan-18 23:00 37.437058 -113.754849 19 33352ft 452kts
22-Jan-18 23:01 37.528896 -113.690579 24 33346ft 457kts
22-Jan-18 23:02 37.653856 -113.591964 26 33328ft 459kts
22-Jan-18 23:03 37.742584 -113.520225 26 33321ft 459kts
22-Jan-18 23:04 37.866876 -113.419089 26 33321ft 459kts
22-Jan-18 23:05 37.955199 -113.346918 27 33319ft 459kts
22-Jan-18 23:06 38.059789 -113.259820 27 33313ft 458kts
22-Jan-18 23:07 38.164279 -113.174771 26 33344ft 457kts
22-Jan-18 23:08 38.270169 -113.087840 27 33357ft 457kts
22-Jan-18 23:09 38.396470 -112.994333 18 33358ft 450kts
22-Jan-18 23:10 38.491284 -112.942672 15 33359ft 448kts
22-Jan-18 23:11 38.621628 -112.874800 16 33346ft 438kts
22-Jan-18 23:12 38.713984 -112.837963 7 33374ft 407kts
22-Jan-18 23:13 38.817398 -112.773278 19 30927ft 439kts
22-Jan-18 23:14 38.928405 -112.710206 18 28590ft 430kts
22-Jan-18 23:15 39.036080 -112.651301 17 26458ft 417kts
22-Jan-18 23:16 39.139528 -112.594974 17 24443ft 404kts
22-Jan-18 23:17 39.238464 -112.537281 19 22563ft 394kts
22-Jan-18 23:18 39.336452 -112.480963 19 20822ft 385kts
22-Jan-18 23:19 39.432678 -112.426205 19 19260ft 376kts
22-Jan-18 23:20 39.526870 -112.372166 19 17727ft 368kts
22-Jan-18 23:21 39.617762 -112.319845 21 16281ft 362kts
22-Jan-18 23:22 39.708558 -112.267579 21 15161ft 356kts
22-Jan-18 23:23 39.797926 -112.216291 21 14104ft 352kts
22-Jan-18 23:24 39.887005 -112.165082 21 13323ft 349kts
22-Jan-18 23:25 39.974637 -112.114569 21 12614ft 346kts
22-Jan-18 23:26 40.062066 -112.064039 21 11953ft 343kts
22-Jan-18 23:27 40.144729 -112.016136 21 11352ft 300kts
22-Jan-18 23:28 40.213888 -111.977866 20 10403ft 264kts
22-Jan-18 23:29 40.280698 -111.942273 20 10389ft 255kts
22-Jan-18 23:30 40.347891 -111.937198 353 10391ft 238kts
22-Jan-18 23:31 40.410221 -111.945211 352 10396ft 214kts
22-Jan-18 23:32 40.467718 -111.952964 352 10287ft 208kts
22-Jan-18 23:33 40.526427 -111.961020 351 9233ft 218kts
22-Jan-18 23:34 40.586545 -111.969319 351 7997ft 217kts
22-Jan-18 23:35 40.644543 -111.977349 351 6850ft 201kts
22-Jan-18 23:36 40.698421 -111.984819 351 5801ft 181kts
22-Jan-18 23:37 40.741091 -111.990746 351 4875ft 134kts
22-Jan-18 23:38 40.777850 -111.995751 353 4208ft 130kts
22-Jan-18 23:39 40.791801 -111.991814 85 4205ft 31kts
22-Jan-18 23:40 40.789334 -111.985061 179 4205ft 1kts
22-Jan-18 23:41 40.789228 -111.985062 171 4205ft 0kts
22-Jan-18 23:42 40.789228 -111.985062 171 4205ft 0kts
22-Jan-18 23:43 40.789228 -111.985062 171 4205ft 0kts
22-Jan-18 23:44 40.789228 -111.985062 171 4205ft 0kts
22-Jan-18 23:45 40.789228 -111.985062 171 4205ft 0kts
22-Jan-18 23:46 40.789228 -111.985062 171 4205ft 0kts
22-Jan-18 23:47 40.789228 -111.985062 171 4205ft 0kts

Navigation Log

Ident Type
Flight plan parsing failed, navigation log unavailable